AEE512 LGTS-EDDB
Flight info
| Callsign | AEE512 |
|---|---|
| Flight time | 2h 6m |
| Altitude | 34000 |
| Route | FSK UN128 RUGAS DCT RAXAD DCT TONDO DCT PEPIK DCT BNO DCT LEGAZ DCT BEFRE T204 NUKRO |
| Aircraft | A320/M-SDE2GHIJ1RTWY/SB1 |
Departure
| Time | 2026-05-07 13:35 |
|---|---|
| Airport | Thessaloniki Macedonia International Airport (LGTS) |
Arrival
| Time | 2026-05-07 15:41 |
|---|---|
| Airport | Berlin Brandenburg Airport (EDDB) |
| Time | Latitude | Longitude | Altitude | Speed | Heading |
|---|---|---|---|---|---|
| 2026-05-07 13:06 | 40.52433 | 22.97429 | 56 ft | 0 kts | 44° |
| 2026-05-07 13:25 | 40.52416 | 22.97408 | 28 ft | 4 kts | 46° |
| 2026-05-07 13:25 | 40.52401 | 22.97380 | 28 ft | 4 kts | 76° |
| 2026-05-07 13:25 | 40.52404 | 22.97351 | 28 ft | 2 kts | 134° |
| 2026-05-07 13:25 | 40.52405 | 22.97349 | 28 ft | 0 kts | 135° |
| 2026-05-07 13:31 | 40.52403 | 22.97351 | 28 ft | 2 kts | 135° |
| 2026-05-07 13:31 | 40.52382 | 22.97379 | 28 ft | 7 kts | 135° |
| 2026-05-07 13:31 | 40.52336 | 22.97439 | 28 ft | 11 kts | 135° |
| 2026-05-07 13:31 | 40.52276 | 22.97517 | 28 ft | 13 kts | 135° |
| 2026-05-07 13:32 | 40.52207 | 22.97607 | 28 ft | 15 kts | 137° |
| 2026-05-07 13:32 | 40.52120 | 22.97694 | 28 ft | 16 kts | 139° |
| 2026-05-07 13:32 | 40.52035 | 22.97803 | 29 ft | 18 kts | 134° |
| 2026-05-07 13:32 | 40.51982 | 22.97952 | 29 ft | 19 kts | 104° |
| 2026-05-07 13:33 | 40.51949 | 22.98127 | 29 ft | 20 kts | 104° |
| 2026-05-07 13:33 | 40.51913 | 22.98314 | 28 ft | 22 kts | 104° |
| 2026-05-07 13:33 | 40.51876 | 22.98512 | 29 ft | 23 kts | 104° |
| 2026-05-07 13:33 | 40.51847 | 22.98666 | 28 ft | 6 kts | 104° |
| 2026-05-07 13:34 | 40.51815 | 22.98709 | 28 ft | 7 kts | 169° |
| 2026-05-07 13:34 | 40.51695 | 22.98673 | 29 ft | 9 kts | 208° |
| 2026-05-07 13:34 | 40.51691 | 22.98597 | 28 ft | 10 kts | 283° |
| 2026-05-07 13:35 | 40.51713 | 22.98474 | 28 ft | 28 kts | 283° |
| 2026-05-07 13:35 | 40.51824 | 22.97883 | 29 ft | 103 kts | 284° |
| 2026-05-07 13:35 | 40.52048 | 22.96707 | 31 ft | 160 kts | 284° |
| 2026-05-07 13:35 | 40.52325 | 22.95253 | 625 ft | 162 kts | 284° |
| 2026-05-07 13:36 | 40.52615 | 22.93803 | 1357 ft | 166 kts | 285° |
| 2026-05-07 13:36 | 40.52930 | 22.92336 | 2068 ft | 165 kts | 286° |
| 2026-05-07 13:36 | 40.53263 | 22.90821 | 2472 ft | 183 kts | 285° |
| 2026-05-07 13:36 | 40.53620 | 22.89113 | 2827 ft | 203 kts | 284° |
| 2026-05-07 13:37 | 40.54001 | 22.87254 | 3241 ft | 218 kts | 284° |
| 2026-05-07 13:37 | 40.54409 | 22.85240 | 3609 ft | 238 kts | 284° |
| 2026-05-07 13:37 | 40.54845 | 22.83059 | 4100 ft | 254 kts | 283° |
| 2026-05-07 13:37 | 40.55294 | 22.80797 | 4784 ft | 261 kts | 283° |
| 2026-05-07 13:38 | 40.55756 | 22.78474 | 5561 ft | 264 kts | 284° |
| 2026-05-07 13:38 | 40.56599 | 22.76321 | 6333 ft | 270 kts | 310° |
| 2026-05-07 13:38 | 40.58137 | 22.74904 | 7087 ft | 276 kts | 338° |
| 2026-05-07 13:38 | 40.60051 | 22.74531 | 7837 ft | 283 kts | 359° |
| 2026-05-07 13:39 | 40.62039 | 22.74763 | 8607 ft | 288 kts | 4° |
| 2026-05-07 13:39 | 40.64036 | 22.75101 | 9383 ft | 291 kts | 3° |
| 2026-05-07 13:39 | 40.66056 | 22.75377 | 10136 ft | 293 kts | 1° |
| 2026-05-07 13:39 | 40.68130 | 22.75576 | 10569 ft | 307 kts | 359° |
| 2026-05-07 13:40 | 40.70338 | 22.75723 | 10769 ft | 328 kts | 358° |
| 2026-05-07 13:40 | 40.72681 | 22.75850 | 11141 ft | 342 kts | 358° |
| 2026-05-07 13:40 | 40.75071 | 22.75976 | 11820 ft | 345 kts | 358° |
| 2026-05-07 13:40 | 40.77491 | 22.76106 | 12518 ft | 348 kts | 358° |
| 2026-05-07 13:41 | 40.79921 | 22.76236 | 13196 ft | 352 kts | 358° |
| 2026-05-07 13:41 | 40.82351 | 22.76367 | 13840 ft | 354 kts | 358° |
| 2026-05-07 13:41 | 40.84828 | 22.76499 | 14390 ft | 358 kts | 358° |
| 2026-05-07 13:41 | 40.87335 | 22.76632 | 14934 ft | 362 kts | 358° |
| 2026-05-07 13:42 | 40.89864 | 22.76767 | 15469 ft | 366 kts | 358° |
| 2026-05-07 13:42 | 40.92419 | 22.76904 | 16006 ft | 369 kts | 358° |
| 2026-05-07 13:42 | 40.94995 | 22.77043 | 16531 ft | 373 kts | 358° |
| 2026-05-07 13:42 | 40.97603 | 22.77185 | 17066 ft | 376 kts | 358° |
| 2026-05-07 13:43 | 41.00229 | 22.77329 | 17581 ft | 379 kts | 358° |
| 2026-05-07 13:43 | 41.02877 | 22.77473 | 18112 ft | 382 kts | 358° |
| 2026-05-07 13:43 | 41.05544 | 22.77619 | 18608 ft | 385 kts | 358° |
| 2026-05-07 13:43 | 41.08232 | 22.77767 | 19069 ft | 388 kts | 358° |
| 2026-05-07 13:44 | 41.10939 | 22.77915 | 19502 ft | 391 kts | 358° |
| 2026-05-07 13:44 | 41.13670 | 22.78066 | 19946 ft | 393 kts | 358° |
| 2026-05-07 13:44 | 41.16418 | 22.78218 | 20373 ft | 397 kts | 358° |
| 2026-05-07 13:44 | 41.19178 | 22.78370 | 20793 ft | 400 kts | 358° |
| 2026-05-07 13:45 | 41.21937 | 22.78524 | 21204 ft | 403 kts | 358° |
| 2026-05-07 13:45 | 41.24785 | 22.78682 | 21617 ft | 406 kts | 358° |
| 2026-05-07 13:45 | 41.27620 | 22.78840 | 22020 ft | 409 kts | 358° |
| 2026-05-07 13:45 | 41.30435 | 22.78924 | 22410 ft | 410 kts | 353° |
| 2026-05-07 13:46 | 41.33267 | 22.78479 | 22798 ft | 409 kts | 344° |
| 2026-05-07 13:46 | 41.36005 | 22.77450 | 23153 ft | 408 kts | 335° |
| 2026-05-07 13:46 | 41.38627 | 22.76007 | 23494 ft | 409 kts | 333° |
| 2026-05-07 13:46 | 41.41271 | 22.74536 | 23875 ft | 412 kts | 333° |
| 2026-05-07 13:47 | 41.43927 | 22.73066 | 24208 ft | 414 kts | 333° |
| 2026-05-07 13:47 | 41.46564 | 22.71608 | 24531 ft | 416 kts | 333° |
| 2026-05-07 13:47 | 41.49248 | 22.70123 | 24851 ft | 418 kts | 333° |
| 2026-05-07 13:47 | 41.51981 | 22.68608 | 25178 ft | 421 kts | 333° |
| 2026-05-07 13:48 | 41.54661 | 22.67122 | 25485 ft | 423 kts | 334° |
| 2026-05-07 13:48 | 41.57384 | 22.65610 | 25809 ft | 425 kts | 334° |
| 2026-05-07 13:48 | 41.60122 | 22.64088 | 26115 ft | 427 kts | 334° |
| 2026-05-07 13:48 | 41.62878 | 22.62555 | 26395 ft | 429 kts | 333° |
| 2026-05-07 13:49 | 41.65635 | 22.61019 | 26677 ft | 431 kts | 334° |
| 2026-05-07 13:49 | 41.68419 | 22.59467 | 26973 ft | 433 kts | 334° |
| 2026-05-07 13:49 | 41.71212 | 22.57910 | 27242 ft | 435 kts | 334° |
| 2026-05-07 13:49 | 41.74010 | 22.56346 | 27514 ft | 437 kts | 334° |
| 2026-05-07 13:50 | 41.76824 | 22.54772 | 27766 ft | 439 kts | 334° |
| 2026-05-07 13:50 | 41.79650 | 22.53190 | 28018 ft | 441 kts | 334° |
| 2026-05-07 13:50 | 41.82489 | 22.51602 | 28229 ft | 443 kts | 334° |
| 2026-05-07 13:50 | 41.85306 | 22.50024 | 28450 ft | 445 kts | 333° |
| 2026-05-07 13:51 | 41.88167 | 22.48418 | 28706 ft | 446 kts | 333° |
| 2026-05-07 13:51 | 41.91052 | 22.46798 | 28932 ft | 448 kts | 333° |
| 2026-05-07 13:51 | 41.93929 | 22.45180 | 29142 ft | 450 kts | 333° |
| 2026-05-07 13:51 | 41.96824 | 22.43550 | 29345 ft | 452 kts | 333° |
| 2026-05-07 13:52 | 41.99725 | 22.41916 | 29541 ft | 453 kts | 333° |
| 2026-05-07 13:52 | 42.02645 | 22.40270 | 29773 ft | 454 kts | 333° |
| 2026-05-07 13:52 | 42.05557 | 22.38627 | 29927 ft | 457 kts | 333° |
| 2026-05-07 13:52 | 42.08496 | 22.36966 | 30133 ft | 458 kts | 333° |
| 2026-05-07 13:53 | 42.11445 | 22.35297 | 30282 ft | 460 kts | 333° |
| 2026-05-07 13:53 | 42.14404 | 22.33621 | 30449 ft | 462 kts | 333° |
| 2026-05-07 13:53 | 42.17370 | 22.31939 | 30619 ft | 463 kts | 333° |
| 2026-05-07 13:53 | 42.20345 | 22.30251 | 30778 ft | 465 kts | 333° |
| 2026-05-07 13:54 | 42.23306 | 22.28569 | 30949 ft | 467 kts | 333° |
| 2026-05-07 13:54 | 42.26296 | 22.26869 | 31129 ft | 468 kts | 334° |
| 2026-05-07 13:54 | 42.29305 | 22.25145 | 31311 ft | 468 kts | 333° |
| 2026-05-07 13:54 | 42.32236 | 22.23267 | 31534 ft | 467 kts | 329° |
| 2026-05-07 13:55 | 42.35099 | 22.21210 | 31753 ft | 466 kts | 328° |
| 2026-05-07 13:55 | 42.37970 | 22.19133 | 31952 ft | 467 kts | 328° |
| 2026-05-07 13:55 | 42.40836 | 22.17069 | 32147 ft | 467 kts | 328° |
| 2026-05-07 13:55 | 42.43704 | 22.15005 | 32357 ft | 467 kts | 328° |
| 2026-05-07 13:56 | 42.46579 | 22.12933 | 32537 ft | 467 kts | 328° |
| 2026-05-07 13:56 | 42.49444 | 22.10866 | 32728 ft | 467 kts | 328° |
| 2026-05-07 13:56 | 42.52312 | 22.08793 | 32905 ft | 467 kts | 328° |
| 2026-05-07 13:56 | 42.55178 | 22.06718 | 33083 ft | 467 kts | 328° |
| 2026-05-07 13:57 | 42.58050 | 22.04636 | 33246 ft | 467 kts | 328° |
| 2026-05-07 13:57 | 42.60880 | 22.02582 | 33413 ft | 467 kts | 328° |
| 2026-05-07 13:57 | 42.63757 | 22.00492 | 33593 ft | 467 kts | 328° |
| 2026-05-07 13:57 | 42.66615 | 21.98414 | 33776 ft | 467 kts | 328° |
| 2026-05-07 13:58 | 42.69482 | 21.96326 | 33935 ft | 466 kts | 328° |
| 2026-05-07 13:58 | 42.72343 | 21.94241 | 34103 ft | 466 kts | 328° |
| 2026-05-07 13:58 | 42.75192 | 21.92161 | 34099 ft | 465 kts | 328° |
| 2026-05-07 13:59 | 42.80908 | 21.87984 | 34097 ft | 464 kts | 328° |
| 2026-05-07 13:59 | 42.86561 | 21.83843 | 34094 ft | 464 kts | 328° |
| 2026-05-07 14:00 | 42.92241 | 21.79674 | 34089 ft | 464 kts | 328° |
| 2026-05-07 14:00 | 42.97933 | 21.75487 | 34092 ft | 464 kts | 328° |
| 2026-05-07 14:01 | 43.03615 | 21.71300 | 34089 ft | 463 kts | 328° |
| 2026-05-07 14:01 | 43.09295 | 21.67105 | 34086 ft | 464 kts | 328° |
| 2026-05-07 14:02 | 43.14973 | 21.62901 | 34079 ft | 464 kts | 328° |
| 2026-05-07 14:02 | 43.20649 | 21.58694 | 34072 ft | 463 kts | 328° |
| 2026-05-07 14:03 | 43.26313 | 21.54485 | 34063 ft | 463 kts | 328° |
| 2026-05-07 14:03 | 43.31949 | 21.50288 | 34060 ft | 464 kts | 328° |
| 2026-05-07 14:04 | 43.37626 | 21.46051 | 34059 ft | 465 kts | 327° |
| 2026-05-07 14:04 | 43.43320 | 21.41794 | 34048 ft | 465 kts | 327° |
| 2026-05-07 14:05 | 43.48999 | 21.37537 | 34049 ft | 466 kts | 327° |
| 2026-05-07 14:05 | 43.54697 | 21.33254 | 34054 ft | 467 kts | 327° |
| 2026-05-07 14:06 | 43.60375 | 21.28979 | 34057 ft | 467 kts | 327° |
| 2026-05-07 14:06 | 43.66117 | 21.24645 | 34065 ft | 468 kts | 327° |
| 2026-05-07 14:07 | 43.71795 | 21.20351 | 34071 ft | 468 kts | 327° |
| 2026-05-07 14:07 | 43.77511 | 21.16019 | 34074 ft | 468 kts | 327° |
| 2026-05-07 14:08 | 43.83225 | 21.11676 | 34075 ft | 468 kts | 327° |
| 2026-05-07 14:08 | 43.88935 | 21.07327 | 34076 ft | 468 kts | 327° |
| 2026-05-07 14:09 | 43.94646 | 21.02968 | 34069 ft | 468 kts | 327° |
| 2026-05-07 14:09 | 44.00345 | 20.98610 | 34061 ft | 467 kts | 327° |
| 2026-05-07 14:10 | 44.05994 | 20.94282 | 34050 ft | 466 kts | 327° |
| 2026-05-07 14:10 | 44.11668 | 20.89924 | 34031 ft | 465 kts | 327° |
| 2026-05-07 14:11 | 44.17340 | 20.85558 | 34021 ft | 465 kts | 326° |
| 2026-05-07 14:11 | 44.22996 | 20.81194 | 34009 ft | 464 kts | 326° |
| 2026-05-07 14:12 | 44.28646 | 20.76826 | 34000 ft | 464 kts | 326° |
| 2026-05-07 14:12 | 44.34291 | 20.72451 | 34000 ft | 464 kts | 326° |
| 2026-05-07 14:13 | 44.39900 | 20.68095 | 34002 ft | 464 kts | 326° |
| 2026-05-07 14:13 | 44.45556 | 20.63693 | 34006 ft | 466 kts | 326° |
| 2026-05-07 14:14 | 44.50271 | 20.60017 | 34016 ft | 466 kts | 326° |
| 2026-05-07 14:14 | 44.55940 | 20.55586 | 34012 ft | 466 kts | 326° |
| 2026-05-07 14:15 | 44.61609 | 20.51146 | 34014 ft | 467 kts | 326° |
| 2026-05-07 14:15 | 44.67286 | 20.46688 | 34023 ft | 467 kts | 326° |
| 2026-05-07 14:16 | 44.72963 | 20.42221 | 34030 ft | 468 kts | 326° |
| 2026-05-07 14:16 | 44.78616 | 20.37762 | 34038 ft | 468 kts | 326° |
| 2026-05-07 14:17 | 44.84297 | 20.33273 | 34039 ft | 468 kts | 326° |
| 2026-05-07 14:17 | 44.89977 | 20.28774 | 34038 ft | 468 kts | 326° |
| 2026-05-07 14:18 | 44.95647 | 20.24272 | 34045 ft | 467 kts | 326° |
| 2026-05-07 14:18 | 45.01311 | 20.19764 | 34054 ft | 467 kts | 326° |
| 2026-05-07 14:19 | 45.06963 | 20.15257 | 34050 ft | 466 kts | 326° |
| 2026-05-07 14:19 | 45.12607 | 20.10744 | 34043 ft | 464 kts | 326° |
| 2026-05-07 14:20 | 45.18217 | 20.06249 | 34030 ft | 462 kts | 326° |
| 2026-05-07 14:20 | 45.23769 | 20.01790 | 34022 ft | 460 kts | 325° |
| 2026-05-07 14:21 | 45.29331 | 19.97312 | 34008 ft | 458 kts | 325° |
| 2026-05-07 14:21 | 45.34871 | 19.92841 | 33998 ft | 457 kts | 325° |
| 2026-05-07 14:22 | 45.40392 | 19.88377 | 33992 ft | 455 kts | 325° |
| 2026-05-07 14:22 | 45.45893 | 19.83918 | 33985 ft | 454 kts | 325° |
| 2026-05-07 14:23 | 45.51376 | 19.79464 | 33982 ft | 453 kts | 325° |
| 2026-05-07 14:23 | 45.56818 | 19.75033 | 33982 ft | 454 kts | 325° |
| 2026-05-07 14:24 | 45.62302 | 19.70557 | 33983 ft | 454 kts | 325° |
| 2026-05-07 14:24 | 45.67783 | 19.66076 | 33976 ft | 453 kts | 325° |
| 2026-05-07 14:25 | 45.73260 | 19.61586 | 33971 ft | 453 kts | 325° |
| 2026-05-07 14:25 | 45.78723 | 19.57097 | 33969 ft | 453 kts | 325° |
| 2026-05-07 14:26 | 45.84190 | 19.52595 | 33976 ft | 453 kts | 325° |
| 2026-05-07 14:26 | 45.89663 | 19.48078 | 33982 ft | 454 kts | 324° |
| 2026-05-07 14:27 | 45.95143 | 19.43548 | 33981 ft | 454 kts | 324° |
| 2026-05-07 14:27 | 46.00625 | 19.39009 | 33996 ft | 455 kts | 324° |
| 2026-05-07 14:28 | 46.06113 | 19.34464 | 33995 ft | 456 kts | 325° |
| 2026-05-07 14:28 | 46.11695 | 19.30065 | 34000 ft | 457 kts | 326° |
| 2026-05-07 14:29 | 46.17261 | 19.25722 | 34012 ft | 458 kts | 326° |
| 2026-05-07 14:29 | 46.22871 | 19.21311 | 34014 ft | 459 kts | 326° |
| 2026-05-07 14:30 | 46.28479 | 19.16879 | 34019 ft | 460 kts | 326° |
| 2026-05-07 14:30 | 46.34095 | 19.12426 | 34018 ft | 460 kts | 326° |
| 2026-05-07 14:31 | 46.39709 | 19.07965 | 34017 ft | 460 kts | 325° |
| 2026-05-07 14:31 | 46.45329 | 19.03488 | 34013 ft | 461 kts | 325° |
| 2026-05-07 14:32 | 46.50919 | 18.99026 | 34012 ft | 461 kts | 325° |
| 2026-05-07 14:32 | 46.56536 | 18.94530 | 34011 ft | 461 kts | 325° |
| 2026-05-07 14:33 | 46.62157 | 18.90022 | 34005 ft | 461 kts | 325° |
| 2026-05-07 14:33 | 46.67772 | 18.85507 | 34006 ft | 461 kts | 324° |
| 2026-05-07 14:34 | 46.73385 | 18.80983 | 34006 ft | 461 kts | 324° |
| 2026-05-07 14:34 | 46.79000 | 18.76445 | 33993 ft | 461 kts | 324° |
| 2026-05-07 14:35 | 46.84620 | 18.71894 | 33988 ft | 462 kts | 324° |
| 2026-05-07 14:35 | 46.90240 | 18.67329 | 33987 ft | 463 kts | 324° |
| 2026-05-07 14:36 | 46.95544 | 18.63012 | 33989 ft | 464 kts | 324° |
| 2026-05-07 14:36 | 47.01188 | 18.58408 | 33985 ft | 465 kts | 324° |
| 2026-05-07 14:37 | 47.06855 | 18.53774 | 33994 ft | 466 kts | 324° |
| 2026-05-07 14:37 | 47.15359 | 18.46798 | 34004 ft | 467 kts | 324° |
| 2026-05-07 14:38 | 47.21040 | 18.42123 | 34001 ft | 468 kts | 324° |
| 2026-05-07 14:38 | 47.26725 | 18.37433 | 34000 ft | 469 kts | 324° |
| 2026-05-07 14:39 | 47.32419 | 18.32723 | 33995 ft | 469 kts | 324° |
| 2026-05-07 14:39 | 47.38113 | 18.28002 | 34004 ft | 470 kts | 324° |
| 2026-05-07 14:40 | 47.43818 | 18.23261 | 34002 ft | 470 kts | 324° |
| 2026-05-07 14:40 | 47.49479 | 18.18544 | 34007 ft | 470 kts | 324° |
| 2026-05-07 14:41 | 47.55176 | 18.13786 | 34009 ft | 470 kts | 323° |
| 2026-05-07 14:41 | 47.60871 | 18.09018 | 34007 ft | 470 kts | 323° |
| 2026-05-07 14:42 | 47.66568 | 18.04235 | 34005 ft | 470 kts | 323° |
| 2026-05-07 14:42 | 47.72264 | 17.99441 | 34007 ft | 470 kts | 323° |
| 2026-05-07 14:43 | 47.77959 | 17.94636 | 34003 ft | 471 kts | 323° |
| 2026-05-07 14:43 | 47.83612 | 17.89853 | 33999 ft | 470 kts | 323° |
| 2026-05-07 14:44 | 47.89300 | 17.85031 | 33985 ft | 470 kts | 323° |
| 2026-05-07 14:44 | 47.94975 | 17.80207 | 33972 ft | 469 kts | 323° |
| 2026-05-07 14:45 | 48.00651 | 17.75368 | 33963 ft | 469 kts | 323° |
| 2026-05-07 14:45 | 48.06320 | 17.70523 | 33947 ft | 469 kts | 323° |
| 2026-05-07 14:46 | 48.11992 | 17.65662 | 33942 ft | 470 kts | 323° |
| 2026-05-07 14:46 | 48.17670 | 17.60784 | 33940 ft | 471 kts | 323° |
| 2026-05-07 14:47 | 48.23362 | 17.55880 | 33944 ft | 472 kts | 323° |
| 2026-05-07 14:47 | 48.29065 | 17.50955 | 33953 ft | 473 kts | 323° |
| 2026-05-07 14:48 | 48.34783 | 17.46004 | 33956 ft | 475 kts | 323° |
| 2026-05-07 14:48 | 48.40475 | 17.41063 | 33961 ft | 476 kts | 323° |
| 2026-05-07 14:49 | 48.46252 | 17.36035 | 33963 ft | 477 kts | 323° |
| 2026-05-07 14:49 | 48.51964 | 17.31051 | 33962 ft | 478 kts | 323° |
| 2026-05-07 14:50 | 48.57727 | 17.26010 | 33972 ft | 478 kts | 323° |
| 2026-05-07 14:50 | 48.63485 | 17.20959 | 33969 ft | 478 kts | 323° |
| 2026-05-07 14:51 | 48.69246 | 17.15893 | 33970 ft | 478 kts | 324° |
| 2026-05-07 14:51 | 48.74964 | 17.10856 | 33969 ft | 478 kts | 324° |
| 2026-05-07 14:52 | 48.80589 | 17.05520 | 33966 ft | 474 kts | 319° |
| 2026-05-07 14:52 | 48.86001 | 16.99830 | 33955 ft | 473 kts | 319° |
| 2026-05-07 14:53 | 48.91422 | 16.94162 | 33948 ft | 472 kts | 319° |
| 2026-05-07 14:53 | 48.96795 | 16.88520 | 33940 ft | 471 kts | 319° |
| 2026-05-07 14:54 | 49.02192 | 16.82833 | 33937 ft | 471 kts | 319° |
| 2026-05-07 14:54 | 49.07568 | 16.77151 | 33933 ft | 470 kts | 319° |
| 2026-05-07 14:55 | 49.12940 | 16.71458 | 33941 ft | 470 kts | 319° |
| 2026-05-07 14:55 | 49.18141 | 16.65485 | 33931 ft | 466 kts | 315° |
| 2026-05-07 14:56 | 49.23241 | 16.59330 | 33931 ft | 466 kts | 316° |
| 2026-05-07 14:56 | 49.28304 | 16.53222 | 33932 ft | 466 kts | 316° |
| 2026-05-07 14:57 | 49.33397 | 16.47054 | 33933 ft | 466 kts | 316° |
| 2026-05-07 14:57 | 49.38488 | 16.40868 | 33939 ft | 467 kts | 316° |
| 2026-05-07 14:58 | 49.43582 | 16.34661 | 33936 ft | 468 kts | 316° |
| 2026-05-07 14:58 | 49.48683 | 16.28428 | 33935 ft | 468 kts | 316° |
| 2026-05-07 14:59 | 49.53783 | 16.22181 | 33928 ft | 469 kts | 316° |
| 2026-05-07 14:59 | 49.58883 | 16.15916 | 33928 ft | 470 kts | 316° |
| 2026-05-07 15:00 | 49.63960 | 16.09662 | 33943 ft | 470 kts | 316° |
| 2026-05-07 15:00 | 49.69075 | 16.03343 | 33933 ft | 471 kts | 316° |
| 2026-05-07 15:01 | 49.74192 | 15.97004 | 33950 ft | 471 kts | 316° |
| 2026-05-07 15:01 | 49.79308 | 15.90648 | 33953 ft | 472 kts | 316° |
| 2026-05-07 15:02 | 49.83565 | 15.85347 | 33936 ft | 472 kts | 316° |
| 2026-05-07 15:02 | 49.88682 | 15.78958 | 33936 ft | 472 kts | 316° |
| 2026-05-07 15:03 | 49.93798 | 15.72551 | 33939 ft | 473 kts | 316° |
| 2026-05-07 15:03 | 49.98917 | 15.66123 | 33943 ft | 473 kts | 316° |
| 2026-05-07 15:04 | 50.04033 | 15.59682 | 33947 ft | 473 kts | 316° |
| 2026-05-07 15:04 | 50.09140 | 15.53232 | 33953 ft | 473 kts | 316° |
| 2026-05-07 15:05 | 50.14242 | 15.46770 | 33957 ft | 473 kts | 316° |
| 2026-05-07 15:05 | 50.19340 | 15.40296 | 33959 ft | 472 kts | 316° |
| 2026-05-07 15:06 | 50.24401 | 15.33852 | 33966 ft | 472 kts | 316° |
| 2026-05-07 15:06 | 50.29484 | 15.27359 | 33965 ft | 471 kts | 316° |
| 2026-05-07 15:07 | 50.34552 | 15.20867 | 33957 ft | 471 kts | 316° |
| 2026-05-07 15:07 | 50.39617 | 15.14360 | 33953 ft | 470 kts | 316° |
| 2026-05-07 15:08 | 50.44669 | 15.07852 | 33951 ft | 469 kts | 316° |
| 2026-05-07 15:08 | 50.49713 | 15.01336 | 33949 ft | 469 kts | 316° |
| 2026-05-07 15:09 | 50.54711 | 14.94861 | 33951 ft | 468 kts | 316° |
| 2026-05-07 15:09 | 50.59737 | 14.88331 | 33952 ft | 468 kts | 316° |
| 2026-05-07 15:10 | 50.64951 | 14.82186 | 33952 ft | 472 kts | 327° |
| 2026-05-07 15:10 | 50.71049 | 14.78281 | 33950 ft | 477 kts | 344° |
| 2026-05-07 15:11 | 50.77524 | 14.75912 | 33960 ft | 477 kts | 345° |
| 2026-05-07 15:11 | 50.83994 | 14.73533 | 33970 ft | 477 kts | 345° |
| 2026-05-07 15:12 | 50.90451 | 14.71147 | 33979 ft | 476 kts | 345° |
| 2026-05-07 15:12 | 50.96911 | 14.68716 | 33989 ft | 476 kts | 343° |
| 2026-05-07 15:13 | 51.03335 | 14.66116 | 33995 ft | 476 kts | 343° |
| 2026-05-07 15:13 | 51.09748 | 14.63513 | 33996 ft | 476 kts | 343° |
| 2026-05-07 15:14 | 51.16129 | 14.60935 | 33956 ft | 475 kts | 343° |
| 2026-05-07 15:14 | 51.19335 | 14.59639 | 33700 ft | 475 kts | 344° |
| 2026-05-07 15:14 | 51.22531 | 14.58347 | 33416 ft | 473 kts | 344° |
| 2026-05-07 15:15 | 51.25718 | 14.57054 | 32838 ft | 473 kts | 344° |
| 2026-05-07 15:15 | 51.28915 | 14.55751 | 32034 ft | 474 kts | 344° |
| 2026-05-07 15:15 | 51.32120 | 14.54441 | 31080 ft | 477 kts | 344° |
| 2026-05-07 15:15 | 51.35332 | 14.53152 | 30359 ft | 475 kts | 346° |
| 2026-05-07 15:16 | 51.38547 | 14.52151 | 29899 ft | 466 kts | 349° |
| 2026-05-07 15:16 | 51.41711 | 14.51467 | 29595 ft | 453 kts | 353° |
| 2026-05-07 15:16 | 51.44821 | 14.50988 | 29117 ft | 446 kts | 353° |
| 2026-05-07 15:16 | 51.47879 | 14.50514 | 28615 ft | 438 kts | 353° |
| 2026-05-07 15:17 | 51.50890 | 14.50044 | 28112 ft | 431 kts | 353° |
| 2026-05-07 15:17 | 51.53849 | 14.49584 | 27620 ft | 424 kts | 353° |
| 2026-05-07 15:17 | 51.56756 | 14.49133 | 27135 ft | 417 kts | 353° |
| 2026-05-07 15:17 | 51.59629 | 14.48689 | 26657 ft | 411 kts | 353° |
| 2026-05-07 15:18 | 51.62453 | 14.48252 | 26184 ft | 405 kts | 353° |
| 2026-05-07 15:18 | 51.65239 | 14.47821 | 25720 ft | 399 kts | 353° |
| 2026-05-07 15:18 | 51.67986 | 14.47396 | 25261 ft | 394 kts | 353° |
| 2026-05-07 15:18 | 51.70709 | 14.46973 | 24799 ft | 391 kts | 353° |
| 2026-05-07 15:19 | 51.73406 | 14.46554 | 24345 ft | 388 kts | 354° |
| 2026-05-07 15:19 | 51.76086 | 14.46138 | 23895 ft | 386 kts | 353° |
| 2026-05-07 15:19 | 51.78750 | 14.45723 | 23399 ft | 383 kts | 354° |
| 2026-05-07 15:19 | 51.81386 | 14.45314 | 22947 ft | 379 kts | 354° |
| 2026-05-07 15:20 | 51.84008 | 14.44905 | 22500 ft | 378 kts | 354° |
| 2026-05-07 15:20 | 51.86591 | 14.44502 | 22052 ft | 376 kts | 354° |
| 2026-05-07 15:20 | 51.89185 | 14.44097 | 21591 ft | 373 kts | 353° |
| 2026-05-07 15:20 | 51.91757 | 14.43696 | 21166 ft | 371 kts | 353° |
| 2026-05-07 15:21 | 51.94330 | 14.43293 | 20715 ft | 370 kts | 353° |
| 2026-05-07 15:21 | 51.96888 | 14.42893 | 20272 ft | 368 kts | 353° |
| 2026-05-07 15:21 | 51.99411 | 14.42364 | 19772 ft | 363 kts | 345° |
| 2026-05-07 15:21 | 52.01741 | 14.40786 | 19070 ft | 366 kts | 325° |
| 2026-05-07 15:22 | 52.03675 | 14.37996 | 18698 ft | 377 kts | 306° |
| 2026-05-07 15:22 | 52.04985 | 14.34342 | 18447 ft | 373 kts | 289° |
| 2026-05-07 15:22 | 52.05543 | 14.30276 | 18013 ft | 367 kts | 274° |
| 2026-05-07 15:22 | 52.05813 | 14.26183 | 17562 ft | 361 kts | 274° |
| 2026-05-07 15:23 | 52.06072 | 14.22158 | 17132 ft | 354 kts | 274° |
| 2026-05-07 15:23 | 52.06323 | 14.18252 | 16714 ft | 348 kts | 274° |
| 2026-05-07 15:23 | 52.06574 | 14.14379 | 16292 ft | 341 kts | 274° |
| 2026-05-07 15:23 | 52.06821 | 14.10576 | 15878 ft | 336 kts | 274° |
| 2026-05-07 15:24 | 52.07065 | 14.06833 | 15475 ft | 330 kts | 274° |
| 2026-05-07 15:24 | 52.07303 | 14.03149 | 15075 ft | 325 kts | 275° |
| 2026-05-07 15:24 | 52.07539 | 13.99502 | 14685 ft | 324 kts | 275° |
| 2026-05-07 15:24 | 52.07773 | 13.95855 | 14291 ft | 323 kts | 275° |
| 2026-05-07 15:25 | 52.08005 | 13.92229 | 13892 ft | 320 kts | 275° |
| 2026-05-07 15:25 | 52.08229 | 13.88688 | 13487 ft | 319 kts | 275° |
| 2026-05-07 15:25 | 52.08455 | 13.85109 | 13087 ft | 317 kts | 275° |
| 2026-05-07 15:25 | 52.08680 | 13.81541 | 12725 ft | 316 kts | 275° |
| 2026-05-07 15:26 | 52.08902 | 13.77995 | 12336 ft | 315 kts | 275° |
| 2026-05-07 15:26 | 52.09122 | 13.74473 | 11968 ft | 313 kts | 275° |
| 2026-05-07 15:26 | 52.09339 | 13.70962 | 11656 ft | 307 kts | 275° |
| 2026-05-07 15:26 | 52.09548 | 13.67584 | 11522 ft | 294 kts | 275° |
| 2026-05-07 15:27 | 52.09750 | 13.64302 | 11167 ft | 290 kts | 275° |
| 2026-05-07 15:27 | 52.09957 | 13.61039 | 10720 ft | 289 kts | 275° |
| 2026-05-07 15:27 | 52.10200 | 13.57791 | 10285 ft | 289 kts | 276° |
| 2026-05-07 15:27 | 52.10456 | 13.54555 | 10050 ft | 289 kts | 276° |
| 2026-05-07 15:28 | 52.10712 | 13.51314 | 9887 ft | 289 kts | 276° |
| 2026-05-07 15:28 | 52.10963 | 13.48070 | 9775 ft | 285 kts | 276° |
| 2026-05-07 15:28 | 52.11202 | 13.44950 | 9639 ft | 270 kts | 276° |
| 2026-05-07 15:28 | 52.11423 | 13.42008 | 9444 ft | 256 kts | 276° |
| 2026-05-07 15:29 | 52.11637 | 13.39146 | 9123 ft | 253 kts | 277° |
| 2026-05-07 15:29 | 52.11867 | 13.36328 | 8937 ft | 251 kts | 283° |
| 2026-05-07 15:29 | 52.12488 | 13.33696 | 8803 ft | 253 kts | 302° |
| 2026-05-07 15:29 | 52.13527 | 13.31385 | 8626 ft | 254 kts | 308° |
| 2026-05-07 15:30 | 52.14599 | 13.29101 | 8318 ft | 254 kts | 308° |
| 2026-05-07 15:30 | 52.15659 | 13.26813 | 8003 ft | 253 kts | 308° |
| 2026-05-07 15:30 | 52.16698 | 13.24558 | 7810 ft | 246 kts | 308° |
| 2026-05-07 15:30 | 52.17723 | 13.22331 | 7470 ft | 245 kts | 308° |
| 2026-05-07 15:31 | 52.18540 | 13.19927 | 7107 ft | 245 kts | 284° |
| 2026-05-07 15:31 | 52.18527 | 13.17172 | 6771 ft | 246 kts | 252° |
| 2026-05-07 15:31 | 52.17906 | 13.14548 | 6538 ft | 250 kts | 248° |
| 2026-05-07 15:31 | 52.17246 | 13.11926 | 6288 ft | 249 kts | 248° |
| 2026-05-07 15:32 | 52.16594 | 13.09320 | 6033 ft | 247 kts | 249° |
| 2026-05-07 15:32 | 52.15959 | 13.06731 | 5766 ft | 245 kts | 249° |
| 2026-05-07 15:32 | 52.15331 | 13.04149 | 5513 ft | 246 kts | 249° |
| 2026-05-07 15:32 | 52.14712 | 13.01592 | 5252 ft | 245 kts | 249° |
| 2026-05-07 15:33 | 52.14111 | 12.99018 | 4986 ft | 242 kts | 256° |
| 2026-05-07 15:33 | 52.14099 | 12.96360 | 4739 ft | 236 kts | 288° |
| 2026-05-07 15:33 | 52.14917 | 12.94079 | 4477 ft | 234 kts | 319° |
| 2026-05-07 15:33 | 52.16296 | 12.92804 | 4204 ft | 226 kts | 349° |
| 2026-05-07 15:34 | 52.17851 | 12.92788 | 3964 ft | 225 kts | 14° |
| 2026-05-07 15:34 | 52.19373 | 12.93374 | 3709 ft | 224 kts | 15° |
| 2026-05-07 15:34 | 52.20888 | 12.94004 | 3458 ft | 225 kts | 24° |
| 2026-05-07 15:34 | 52.22117 | 12.95534 | 3225 ft | 227 kts | 55° |
| 2026-05-07 15:35 | 52.22795 | 12.97892 | 2997 ft | 232 kts | 68° |
| 2026-05-07 15:35 | 52.23399 | 13.00304 | 2999 ft | 228 kts | 66° |
| 2026-05-07 15:35 | 52.24010 | 13.02674 | 2998 ft | 223 kts | 67° |
| 2026-05-07 15:35 | 52.24570 | 13.04989 | 2992 ft | 219 kts | 68° |
| 2026-05-07 15:36 | 52.25115 | 13.07261 | 2989 ft | 213 kts | 68° |
| 2026-05-07 15:36 | 52.25658 | 13.09542 | 3001 ft | 216 kts | 68° |
| 2026-05-07 15:36 | 52.26203 | 13.11826 | 3002 ft | 216 kts | 68° |
| 2026-05-07 15:36 | 52.26746 | 13.14103 | 3003 ft | 216 kts | 68° |
| 2026-05-07 15:37 | 52.27288 | 13.16378 | 3002 ft | 215 kts | 68° |
| 2026-05-07 15:37 | 52.27834 | 13.18666 | 3007 ft | 216 kts | 68° |
| 2026-05-07 15:37 | 52.28377 | 13.20946 | 3007 ft | 215 kts | 68° |
| 2026-05-07 15:37 | 52.28920 | 13.23225 | 3002 ft | 215 kts | 68° |
| 2026-05-07 15:38 | 52.29450 | 13.25450 | 2999 ft | 203 kts | 67° |
| 2026-05-07 15:38 | 52.29951 | 13.27553 | 2776 ft | 196 kts | 67° |
| 2026-05-07 15:38 | 52.30443 | 13.29619 | 2492 ft | 193 kts | 67° |
| 2026-05-07 15:38 | 52.30926 | 13.31650 | 2223 ft | 190 kts | 67° |
| 2026-05-07 15:39 | 52.31403 | 13.33654 | 1956 ft | 187 kts | 67° |
| 2026-05-07 15:39 | 52.31859 | 13.35568 | 1730 ft | 179 kts | 68° |
| 2026-05-07 15:39 | 52.32284 | 13.37359 | 1499 ft | 159 kts | 67° |
| 2026-05-07 15:39 | 52.32659 | 13.38934 | 1269 ft | 139 kts | 67° |
| 2026-05-07 15:40 | 52.32987 | 13.40320 | 1069 ft | 126 kts | 68° |
| 2026-05-07 15:40 | 52.33313 | 13.41681 | 878 ft | 129 kts | 68° |
| 2026-05-07 15:40 | 52.33636 | 13.43038 | 695 ft | 128 kts | 68° |
| 2026-05-07 15:40 | 52.33958 | 13.44394 | 523 ft | 127 kts | 69° |
| 2026-05-07 15:41 | 52.34283 | 13.45739 | 336 ft | 127 kts | 69° |
| 2026-05-07 15:41 | 52.34599 | 13.47076 | 202 ft | 126 kts | 70° |
| 2026-05-07 15:41 | 52.34894 | 13.48325 | 160 ft | 96 kts | 68° |
| 2026-05-07 15:41 | 52.35062 | 13.49029 | 157 ft | 29 kts | 66° |
| 2026-05-07 15:42 | 52.35171 | 13.49280 | 157 ft | 21 kts | 42° |
| 2026-05-07 15:42 | 52.35245 | 13.49380 | 156 ft | 10 kts | 39° |
| 2026-05-07 15:42 | 52.35312 | 13.49472 | 153 ft | 15 kts | 38° |
| 2026-05-07 15:42 | 52.35392 | 13.49574 | 150 ft | 14 kts | 39° |
| 2026-05-07 15:43 | 52.35454 | 13.49686 | 148 ft | 13 kts | 66° |
| 2026-05-07 15:43 | 52.35488 | 13.49836 | 148 ft | 15 kts | 69° |
| 2026-05-07 15:43 | 52.35528 | 13.50000 | 148 ft | 16 kts | 69° |
| 2026-05-07 15:43 | 52.35571 | 13.50181 | 148 ft | 18 kts | 68° |
| 2026-05-07 15:44 | 52.35618 | 13.50377 | 148 ft | 19 kts | 69° |
| 2026-05-07 15:44 | 52.35660 | 13.50554 | 148 ft | 16 kts | 68° |
| 2026-05-07 15:44 | 52.35698 | 13.50712 | 148 ft | 13 kts | 68° |
| 2026-05-07 15:44 | 52.35727 | 13.50811 | 150 ft | 7 kts | 45° |
| 2026-05-07 15:45 | 52.35778 | 13.50821 | 150 ft | 9 kts | 341° |
| 2026-05-07 15:45 | 52.35839 | 13.50783 | 152 ft | 9 kts | 339° |
| 2026-05-07 15:45 | 52.35902 | 13.50785 | 153 ft | 10 kts | 39° |
| 2026-05-07 15:45 | 52.35932 | 13.50888 | 155 ft | 10 kts | 69° |
| 2026-05-07 15:46 | 52.35989 | 13.51125 | 155 ft | 14 kts | 68° |
| 2026-05-07 15:46 | 52.36019 | 13.51213 | 155 ft | 5 kts | 25° |
| 2026-05-07 15:46 | 52.36063 | 13.51197 | 155 ft | 9 kts | 339° |
| 2026-05-07 15:47 | 52.36094 | 13.51178 | 155 ft | 0 kts | 339° |
| 2026-05-07 15:47 | 52.36095 | 13.51177 | 155 ft | 1 kts | 339° |
| 2026-05-07 15:47 | 52.36096 | 13.51177 | 155 ft | 0 kts | 339° |